Time;durP1;ratioP1;P1;durP2;ratioP2;P2;SDS_P1;SDS_P2;PMS_P1;PMS_P2;Temp;Humidity;BMP_temperature;BMP_pressure;BME280_temperature;BME280_humidity;BME280_pressure;Samples;Min_cycle;Max_cycle;Signal;HPM_P1;HPM_P2
2022/03/19 00:05:36;;;;;;;26.23;15.20;;;8.70;75.80;;;;;;20921264;28;20332;-67
2022/03/19 00:15:40;;;;;;;28.73;14.57;;;8.60;76.00;;;;;;20920110;28;20283;-63
2022/03/19 00:25:42;;;;;;;23.60;13.30;;;8.50;76.10;;;;;;20919883;28;20309;-63
2022/03/19 00:35:44;;;;;;;19.03;11.93;;;8.40;76.30;;;;;;20918747;28;20220;-63
2022/03/19 00:45:49;;;;;;;22.70;12.80;;;8.20;76.20;;;;;;20918009;28;20254;-62
2022/03/19 00:55:51;;;;;;;23.47;11.93;;;8.10;76.30;;;;;;20919447;28;20237;-67
2022/03/19 01:05:52;;;;;;;24.33;11.23;;;8.10;76.20;;;;;;20915286;28;20256;-63
2022/03/19 01:15:54;;;;;;;23.67;11.23;;;8.00;76.30;;;;;;20915261;28;20239;-64
2022/03/19 01:25:56;;;;;;;19.63;10.63;;;8.00;76.30;;;;;;20915156;28;20206;-63
2022/03/19 01:35:58;;;;;;;18.80;10.10;;;7.90;76.40;;;;;;20843487;28;20233;-64
2022/03/19 01:45:59;;;;;;;21.50;10.50;;;7.90;76.40;;;;;;20830983;28;20261;-63
2022/03/19 01:56:02;;;;;;;21.53;10.90;;;8.00;76.50;;;;;;20830519;28;20230;-63
2022/03/19 02:06:04;;;;;;;16.37;9.67;;;7.90;76.20;;;;;;20830624;28;20229;-63
2022/03/19 02:16:06;;;;;;;18.97;9.03;;;8.00;76.20;;;;;;20829050;28;20724;-64
2022/03/19 02:26:09;;;;;;;18.20;9.30;;;8.00;75.90;;;;;;20829325;28;20242;-62
2022/03/19 02:36:10;;;;;;;16.30;8.83;;;8.00;75.60;;;;;;20830219;28;20234;-62
2022/03/19 02:46:12;;;;;;;14.43;8.37;;;8.00;75.50;;;;;;20828390;28;20211;-63
2022/03/19 02:56:14;;;;;;;17.10;8.03;;;7.90;75.40;;;;;;20828337;28;20241;-63
2022/03/19 03:06:16;;;;;;;16.27;8.20;;;7.90;75.30;;;;;;20834029;28;20265;-62
2022/03/19 03:16:17;;;;;;;16.33;8.30;;;7.50;75.10;;;;;;20842409;28;20736;-62
2022/03/19 03:26:19;;;;;;;16.63;8.60;;;7.50;75.30;;;;;;20842201;28;20213;-62
2022/03/19 03:36:22;;;;;;;14.43;7.93;;;7.40;75.80;;;;;;20838151;28;20725;-63
2022/03/19 03:46:23;;;;;;;22.33;8.27;;;7.30;75.70;;;;;;20840414;28;20216;-63
2022/03/19 03:56:26;;;;;;;15.83;8.33;;;7.10;76.20;;;;;;20840166;28;20272;-63
2022/03/19 04:06:28;;;;;;;18.17;9.47;;;7.00;76.70;;;;;;20840063;28;20258;-63
2022/03/19 04:16:31;;;;;;;22.80;10.63;;;7.00;77.60;;;;;;20839746;28;20274;-63
2022/03/19 04:26:33;;;;;;;23.10;11.27;;;6.90;78.30;;;;;;20838956;28;20255;-64
2022/03/19 04:36:37;;;;;;;20.37;10.73;;;6.70;79.00;;;;;;20836317;28;20228;-65
2022/03/19 04:46:39;;;;;;;24.30;10.27;;;6.60;79.80;;;;;;20835390;28;20209;-67
2022/03/19 04:56:41;;;;;;;23.73;10.67;;;6.40;80.40;;;;;;20835113;28;20275;-66
2022/03/19 05:06:43;;;;;;;24.03;10.33;;;6.40;80.60;;;;;;20832748;28;20212;-64
2022/03/19 05:16:45;;;;;;;19.47;9.83;;;6.20;81.70;;;;;;20833421;28;20236;-63
2022/03/19 05:26:46;;;;;;;22.83;9.87;;;6.20;82.00;;;;;;20833656;28;20208;-66
2022/03/19 05:36:48;;;;;;;19.33;9.97;;;6.00;82.20;;;;;;20829078;28;20240;-63
2022/03/19 05:46:50;;;;;;;25.33;10.83;;;6.00;82.90;;;;;;20831770;28;20212;-61
2022/03/19 05:56:53;;;;;;;25.83;10.10;;;6.00;84.00;;;;;;20830519;28;20264;-62
2022/03/19 06:06:55;;;;;;;18.67;9.73;;;7.20;90.70;;;;;;20830314;28;20213;-64
2022/03/19 06:16:57;;;;;;;21.07;10.50;;;6.10;90.30;;;;;;20829366;28;20290;-66
2022/03/19 06:26:58;;;;;;;21.67;10.73;;;6.10;90.40;;;;;;20830024;28;20212;-65
2022/03/19 06:40:15;;;;;;;20.83;11.50;;;6.70;85.40;;;;;;20986119;28;21184;-76
2022/03/19 06:50:17;;;;;;;23.80;11.43;;;7.00;85.50;;;;;;20982977;28;20254;-71
2022/03/19 07:00:19;;;;;;;23.17;12.07;;;7.40;85.50;;;;;;20982483;28;20208;-65
2022/03/19 07:10:21;;;;;;;24.40;11.60;;;7.80;84.90;;;;;;20982491;28;20215;-65
2022/03/19 07:20:23;;;;;;;20.33;11.80;;;8.20;83.90;;;;;;20980570;28;20213;-67
2022/03/19 07:30:25;;;;;;;24.80;12.27;;;8.40;82.90;;;;;;20979432;28;20237;-72
2022/03/19 07:50:49;;;;;;;23.77;12.50;;;8.60;81.50;;;;;;20927282;28;20288;-70
2022/03/19 08:00:50;;;;;;;23.73;12.87;;;8.90;80.80;;;;;;20922250;28;20230;-70
2022/03/19 08:10:52;;;;;;;25.13;13.30;;;9.10;80.50;;;;;;20920336;28;20578;-70
2022/03/19 08:20:55;;;;;;;24.40;13.23;;;9.30;79.70;;;;;;20921409;28;20548;-72
2022/03/19 08:30:58;;;;;;;24.20;12.90;;;9.50;79.20;;;;;;20925637;28;20239;-68
2022/03/19 08:41:00;;;;;;;20.07;11.97;;;9.70;78.80;;;;;;20922926;28;20208;-69
2022/03/19 09:01:26;;;;;;;16.83;8.83;;;10.00;76.90;;;;;;20917293;28;20280;-72
2022/03/19 09:11:28;;;;;;;22.83;8.33;;;10.30;75.20;;;;;;20917513;28;20236;-70
2022/03/19 09:21:30;;;;;;;10.20;5.90;;;10.40;75.20;;;;;;20916710;28;20738;-67
2022/03/19 09:31:32;;;;;;;11.27;5.83;;;10.50;71.40;;;;;;20915312;28;20248;-67
2022/03/19 09:49:32;;;;;;;10.63;4.40;;;10.70;61.40;;;;;;20982773;28;20573;-65
2022/03/19 09:59:37;;;;;;;7.67;4.47;;;10.80;60.00;;;;;;20981804;28;20214;-66
2022/03/19 10:09:46;;;;;;;7.73;4.20;;;11.20;60.00;;;;;;20982649;28;20746;-68
2022/03/19 10:19:51;;;;;;;4.67;3.07;;;11.30;55.80;;;;;;20981185;28;20217;-68
2022/03/19 10:30:02;;;;;;;6.13;3.40;;;11.30;53.30;;;;;;20980750;28;20209;-68
2022/03/19 10:40:07;;;;;;;7.03;3.03;;;11.40;53.30;;;;;;20980118;28;20243;-67
2022/03/19 10:50:10;;;;;;;8.83;2.83;;;11.50;53.00;;;;;;20978770;28;20204;-67
2022/03/19 11:00:13;;;;;;;5.00;1.80;;;11.50;48.20;;;;;;20927484;28;20244;-67
2022/03/19 11:10:15;;;;;;;4.13;2.20;;;11.50;45.70;;;;;;20923574;28;20214;-67
2022/03/19 11:20:17;;;;;;;6.13;2.40;;;11.60;40.60;;;;;;20922230;28;20709;-66
2022/03/19 11:30:27;;;;;;;3.70;2.33;;;11.60;41.20;;;;;;20922365;28;20204;-65
2022/03/19 11:40:36;;;;;;;6.67;2.60;;;11.50;41.00;;;;;;20920523;28;20238;-66
2022/03/19 11:50:49;;;;;;;4.13;2.60;;;11.50;39.20;;;;;;20921093;28;20287;-67
2022/03/19 12:00:59;;;;;;;8.23;2.83;;;11.60;39.50;;;;;;20921725;28;20237;-67
2022/03/19 12:11:13;;;;;;;5.73;3.30;;;11.70;40.20;;;;;;20916045;28;20238;-66
2022/03/19 12:21:21;;;;;;;5.57;3.10;;;11.80;40.40;;;;;;20841941;28;20249;-66
2022/03/19 12:31:36;;;;;;;6.13;2.70;;;12.00;40.40;;;;;;20859793;28;20209;-67
2022/03/19 12:41:40;;;;;;;9.87;3.03;;;12.10;40.10;;;;;;20846361;28;20249;-68
2022/03/19 12:52:06;;;;;;;4.17;2.33;;;12.20;40.80;;;;;;20835240;28;20205;-67
2022/03/19 13:02:08;;;;;;;5.40;3.00;;;12.50;39.70;;;;;;20831643;28;20330;-67
2022/03/19 13:12:21;;;;;;;4.07;2.80;;;12.50;38.60;;;;;;20831205;28;20544;-68
2022/03/19 13:22:23;;;;;;;4.97;2.77;;;12.70;38.10;;;;;;20829703;28;20402;-70
2022/03/19 13:32:24;;;;;;;6.13;2.30;;;12.80;37.70;;;;;;20830398;28;20202;-63
2022/03/19 13:42:32;;;;;;;4.83;2.57;;;12.80;36.50;;;;;;20829973;28;20243;-64
2022/03/19 13:52:36;;;;;;;5.13;2.60;;;12.80;35.80;;;;;;20829869;28;20216;-64
2022/03/19 14:02:40;;;;;;;4.10;2.60;;;12.90;35.40;;;;;;20829128;28;20299;-62
2022/03/19 14:12:43;;;;;;;8.67;3.07;;;13.10;35.80;;;;;;20829200;28;20292;-63
2022/03/19 14:22:48;;;;;;;5.70;3.30;;;13.20;36.00;;;;;;20828814;28;20582;-67
2022/03/19 14:32:49;;;;;;;5.33;3.10;;;13.80;36.00;;;;;;20836850;28;20208;-64
2022/03/19 14:42:52;;;;;;;6.07;2.80;;;15.20;34.70;;;;;;20840746;28;20243;-68
2022/03/19 14:52:59;;;;;;;7.23;2.97;;;18.00;32.90;;;;;;20842807;28;20225;-67
2022/03/19 15:03:01;;;;;;;6.17;3.57;;;16.10;34.20;;;;;;20841515;28;20239;-66
2022/03/19 15:13:03;;;;;;;9.73;3.93;;;14.80;37.00;;;;;;20840458;28;20227;-67
2022/03/19 15:23:05;;;;;;;6.43;3.80;;;14.20;41.20;;;;;;20920888;28;20636;-64
2022/03/19 15:33:07;;;;;;;9.67;4.20;;;12.60;45.30;;;;;;20920160;28;20202;-66
2022/03/19 15:43:10;;;;;;;8.85;5.88;;;12.20;46.70;;;;;;20913651;28;20456;-62
2022/03/19 15:53:12;;;;;;;9.83;6.70;;;12.40;51.10;;;;;;20919952;28;20211;-64
2022/03/19 16:03:14;;;;;;;13.13;8.67;;;11.80;50.20;;;;;;20918402;28;20266;-66
2022/03/19 16:13:16;;;;;;;15.30;9.37;;;11.80;50.50;;;;;;20918017;28;20204;-64
2022/03/19 16:23:18;;;;;;;15.43;9.07;;;11.90;49.80;;;;;;20917560;28;20232;-63
2022/03/19 16:33:20;;;;;;;15.77;9.87;;;11.30;50.00;;;;;;20916350;28;20262;-64
2022/03/19 16:43:22;;;;;;;18.77;12.90;;;10.90;51.80;;;;;;20915881;28;20241;-63
2022/03/19 16:53:24;;;;;;;17.97;12.23;;;10.30;56.90;;;;;;20914621;28;20240;-65
2022/03/19 17:03:25;;;;;;;20.00;13.43;;;10.10;58.60;;;;;;20915505;28;20244;-67
2022/03/19 17:13:28;;;;;;;22.80;15.73;;;9.90;63.10;;;;;;20921298;28;20705;-71
2022/03/19 17:23:29;;;;;;;22.00;16.30;;;9.70;64.60;;;;;;20915626;28;20238;-64
2022/03/19 17:33:31;;;;;;;26.30;16.70;;;9.70;64.90;;;;;;20899905;28;20212;-66
2022/03/19 17:43:33;;;;;;;27.50;17.47;;;9.50;65.60;;;;;;20877182;28;20238;-68
2022/03/19 17:53:35;;;;;;;27.30;18.30;;;9.40;65.80;;;;;;20910495;28;20199;-68
2022/03/19 18:10:03;;;;;;;27.17;18.63;;;9.40;65.90;;;;;;21065612;28;20923;-71
2022/03/19 18:20:07;;;;;;;29.53;18.70;;;9.40;65.50;;;;;;21067748;28;20210;-65
2022/03/19 18:30:10;;;;;;;28.47;18.83;;;9.40;65.30;;;;;;21065775;28;20217;-64
2022/03/19 18:40:13;;;;;;;29.37;19.20;;;9.30;64.50;;;;;;21031443;28;20660;-68
2022/03/19 18:50:16;;;;;;;30.43;18.83;;;9.30;64.20;;;;;;21051319;28;20223;-65
2022/03/19 19:01:43;;;;;;;28.97;17.53;;;9.30;64.00;;;;;;20982441;28;20568;-64
2022/03/19 19:11:45;;;;;;;25.10;17.07;;;9.40;63.60;;;;;;20987047;28;20216;-63
2022/03/19 19:21:47;;;;;;;23.27;16.63;;;9.20;62.90;;;;;;20983074;28;20218;-62
2022/03/19 19:31:49;;;;;;;25.57;16.17;;;9.10;62.80;;;;;;20979496;28;20661;-63
2022/03/19 19:41:51;;;;;;;22.10;15.70;;;9.10;62.60;;;;;;20978088;28;20213;-63
2022/03/19 19:52:36;;;;;;;23.43;16.20;;;9.10;62.20;;;;;;21149448;27;20561;-62
2022/03/19 20:02:38;;;;;;;23.10;15.93;;;9.00;61.90;;;;;;21148354;28;20289;-63
2022/03/19 20:12:43;;;;;;;24.17;16.43;;;8.90;61.30;;;;;;21147333;28;20214;-63
2022/03/19 20:22:46;;;;;;;23.40;16.37;;;8.90;61.00;;;;;;21147364;28;20216;-67
2022/03/19 20:32:50;;;;;;;26.63;17.37;;;8.90;60.70;;;;;;21146157;28;20211;-68
2022/03/19 20:42:55;;;;;;;24.43;16.93;;;8.90;60.10;;;;;;21143774;28;20249;-68
2022/03/19 20:53:06;;;;;;;25.87;17.13;;;8.90;59.80;;;;;;21145132;28;20576;-64
2022/03/19 21:03:09;;;;;;;27.13;17.00;;;8.90;59.30;;;;;;21091811;28;20714;-66
2022/03/19 21:13:11;;;;;;;28.23;17.17;;;8.80;58.70;;;;;;21086730;28;20300;-62
2022/03/19 21:23:14;;;;;;;25.10;16.43;;;8.80;58.30;;;;;;21086270;28;20243;-62
2022/03/19 21:38:27;;;;;;;25.57;16.50;;;8.80;57.80;;;;;;20982046;28;20607;-67
2022/03/19 21:48:30;;;;;;;23.23;15.90;;;8.80;57.60;;;;;;20898812;28;20199;-63
2022/03/19 21:58:32;;;;;;;27.47;17.03;;;8.80;57.00;;;;;;20902096;28;20360;-63
2022/03/19 22:08:34;;;;;;;23.83;16.57;;;8.80;56.70;;;;;;20899828;28;20215;-63
2022/03/19 22:18:35;;;;;;;26.63;16.40;;;8.50;56.00;;;;;;20896122;28;20263;-62
2022/03/19 22:28:37;;;;;;;25.73;16.27;;;8.50;56.00;;;;;;20896608;28;20265;-63
2022/03/19 22:38:39;;;;;;;25.23;15.83;;;8.50;56.30;;;;;;20977434;28;20232;-65
2022/03/19 22:48:40;;;;;;;27.00;16.63;;;8.40;55.70;;;;;;20869709;28;20266;-64
2022/03/19 22:58:42;;;;;;;25.07;16.80;;;8.40;55.10;;;;;;20838257;28;20269;-61
2022/03/19 23:19:05;;;;;;;25.97;15.90;;;8.20;54.80;;;;;;20838367;28;20217;-63
2022/03/19 23:29:07;;;;;;;27.43;16.00;;;8.20;54.00;;;;;;20836106;28;20238;-61
2022/03/19 23:39:11;;;;;;;26.50;15.17;;;8.10;53.70;;;;;;20835324;28;20225;-62
2022/03/19 23:49:13;;;;;;;27.27;15.37;;;8.10;53.00;;;;;;20897269;28;20232;-63
2022/03/19 23:59:15;;;;;;;23.63;15.23;;;8.10;52.70;;;;;;20916758;28;20617;-64
